Portada
METAR-TAF:

METAR-TAF

Aeroports :

São Paulo-Congonhas, São Paulo, Brasil

latitud: 23-37S, longitud: 046-39W, altitud: 803 m

Observació

L'informe es va fer fa 1 hora i 2 minuts, a les 17:00 UTC
Vent 11 kt del Sud
Temperatura 17°C
Humitat 68%
Pressió 1025 hPa
Visibilitat 10 km o més
Núvols disperses a una alçada de 1900 ft
Cel ennuvolat a una alçada de 2700 ft

METAR: SBSP 241700Z 19011KT 9999 SCT019 BKN027 17/11 Q1025

Hora: 15:02 (18:02 UTC)

Pronòstic

L'informe es va fer fa 1 hora i 22 minuts, a les 16:40 UTC
Pronòstic vàlid del 24 a les 18 UTC al 25 a les 06 UTC
Vent 10 kt del Sud
Visibilitat 10 km o més
Cel ennuvolat a una alçada de 2000 ft
Evolucionant progressivament
l' 24 a les 21 UTC al 24 a les 23 UTC
Cel ennuvolat a una alçada de 1000 ft

TAF: SBSP 241640Z 2418/2506 17010KT 9999 BKN020 TX18/2418Z TN13/2505Z BECMG 2421/2423 BKN010 RMK PGL

Observacions i pronòstics meteorològics de més de 4000 aeroports (METAR i TAF).

Les estacions disponibles són els punts grocs i vermells al mapa.

Posi el ratolí al punt desitjat per veure el nom de l'estació.

Feu clic per veure les observacions i els pronòstics meteorològics.

Per canviar el mapa: feu clic els botons verds amb una creu de color negre per apropar; al botó verd amb un guió per allunyar la imatge; o en les fletxes verdes per a mapes adjacents.


METAR-TAF: